createdAt,value
2022-12-07T00:02:17.857Z,15.75
2022-12-07T00:07:23.667Z,17.15
2022-12-07T00:12:29.850Z,16.65
2022-12-07T00:17:32.237Z,16.65
2022-12-07T00:22:34.561Z,14.95
2022-12-07T00:27:37.519Z,14.68
2022-12-07T00:32:39.890Z,14.05
2022-12-07T00:37:42.241Z,14.05
2022-12-07T00:42:44.696Z,12.95
2022-12-07T00:47:47.088Z,13.48
2022-12-07T00:52:49.496Z,13.27
2022-12-07T00:57:51.848Z,13.73
2022-12-07T01:02:54.434Z,13.80
2022-12-07T01:07:56.827Z,13.05
2022-12-07T01:13:00.554Z,13.52
2022-12-07T01:18:03.151Z,13.20
2022-12-07T01:23:05.665Z,15.75
2022-12-07T01:28:07.965Z,13.68
2022-12-07T01:33:10.298Z,14.90
2022-12-07T01:38:12.664Z,12.18
2022-12-07T01:43:21.740Z,12.85
2022-12-07T01:48:29.322Z,11.73
2022-12-07T01:53:33.708Z,11.82
2022-12-07T01:58:36.129Z,12.43
2022-12-07T02:03:44.301Z,11.80
2022-12-07T02:08:48.102Z,12.52
2022-12-07T02:13:51.044Z,12.43
2022-12-07T02:19:16.131Z,12.40
2022-12-07T02:24:38.647Z,12.15
2022-12-07T02:29:57.287Z,11.73
2022-12-07T02:35:07.027Z,11.20
2022-12-07T02:40:32.862Z,11.98
2022-12-07T02:45:37.273Z,11.95
2022-12-07T02:50:39.634Z,12.80
2022-12-07T02:55:43.623Z,10.95
2022-12-07T03:01:11.229Z,12.25
2022-12-07T03:06:22.748Z,12.05
2022-12-07T03:11:35.729Z,12.77
2022-12-07T03:16:51.201Z,11.63
2022-12-07T03:22:00.775Z,12.52
2022-12-07T03:27:12.554Z,12.13
2022-12-07T03:32:23.950Z,12.07
2022-12-07T03:37:38.694Z,11.95
2022-12-07T03:42:41.468Z,12.23
2022-12-07T03:47:48.120Z,11.98
2022-12-07T03:53:14.835Z,11.93
2022-12-07T03:58:23.557Z,12.05
2022-12-07T04:03:25.811Z,14.32
2022-12-07T04:08:28.130Z,13.13
2022-12-07T04:13:30.567Z,12.55
2022-12-07T04:18:32.920Z,12.32
2022-12-07T04:23:35.261Z,13.27
2022-12-07T04:28:37.600Z,12.57
2022-12-07T04:33:39.934Z,12.35
2022-12-07T04:38:42.364Z,13.30
2022-12-07T04:43:44.820Z,13.57
2022-12-07T04:48:47.404Z,12.68
2022-12-07T04:53:50.450Z,12.98
2022-12-07T04:58:54.850Z,12.82
2022-12-07T05:03:57.476Z,12.75
2022-12-07T05:08:59.919Z,13.68
2022-12-07T05:14:03.912Z,15.63
2022-12-07T05:19:06.896Z,14.35
2022-12-07T05:24:11.629Z,13.95
2022-12-07T05:29:16.593Z,13.75
2022-12-07T05:34:19.052Z,16.33
2022-12-07T05:39:23.699Z,23.20
2022-12-07T05:44:26.182Z,21.70
2022-12-07T05:49:28.521Z,19.90
2022-12-07T05:54:31.145Z,18.42
2022-12-07T05:59:33.705Z,15.80
2022-12-07T06:04:38.941Z,14.95
2022-12-07T06:09:41.381Z,14.38
2022-12-07T06:14:44.319Z,12.77
2022-12-07T06:19:46.686Z,13.65
2022-12-07T06:24:49.027Z,13.20
2022-12-07T06:29:51.380Z,14.35
2022-12-07T06:34:53.655Z,13.95
2022-12-07T06:39:56.118Z,14.10
2022-12-07T06:44:59.493Z,16.02
2022-12-07T06:50:02.327Z,16.77
2022-12-07T06:55:05.145Z,17.35
2022-12-07T07:00:08.284Z,17.05
2022-12-07T07:05:10.548Z,16.92
2022-12-07T07:10:12.797Z,15.65
2022-12-07T07:15:15.172Z,16.65
2022-12-07T07:20:17.589Z,16.50
2022-12-07T07:25:20.402Z,15.75
2022-12-07T07:30:22.979Z,16.77
2022-12-07T07:35:26.160Z,16.83
2022-12-07T07:40:32.834Z,15.88
2022-12-07T07:45:35.451Z,16.67
2022-12-07T07:50:37.811Z,15.55
2022-12-07T07:55:40.361Z,18.08
2022-12-07T08:00:43.079Z,16.95
2022-12-07T08:05:45.454Z,17.35
2022-12-07T08:10:47.968Z,15.10
2022-12-07T08:15:50.408Z,16.38
2022-12-07T08:20:52.840Z,15.45
2022-12-07T08:25:55.115Z,14.45
2022-12-07T08:31:02.509Z,14.80
2022-12-07T08:36:11.121Z,14.27
2022-12-07T08:41:13.441Z,14.65
2022-12-07T08:46:26.216Z,14.63
2022-12-07T08:51:28.794Z,15.57
2022-12-07T08:56:31.226Z,20.13
2022-12-07T09:01:34.527Z,18.33
2022-12-07T09:06:37.073Z,17.60
2022-12-07T09:11:42.426Z,19.33
2022-12-07T09:16:44.820Z,20.05
2022-12-07T09:21:47.159Z,20.05
2022-12-07T09:26:49.452Z,21.23
2022-12-07T09:31:52.392Z,20.00
2022-12-07T09:36:55.214Z,20.05
2022-12-07T09:42:00.025Z,22.00
2022-12-07T09:47:03.621Z,21.60
2022-12-07T09:52:09.335Z,22.10
2022-12-07T09:57:14.064Z,22.63
2022-12-07T10:02:40.155Z,22.83
2022-12-07T10:07:42.947Z,23.33
2022-12-07T10:13:00.356Z,26.15
2022-12-07T10:18:02.695Z,24.65
2022-12-07T10:23:13.659Z,23.20
2022-12-07T10:28:18.561Z,23.42
2022-12-07T10:33:36.767Z,22.75
2022-12-07T10:38:47.219Z,21.13
2022-12-07T10:43:52.995Z,19.92
2022-12-07T10:49:13.187Z,19.80
2022-12-07T10:54:26.545Z,19.45
2022-12-07T10:59:46.923Z,19.52
2022-12-07T11:05:07.555Z,18.65
2022-12-07T11:10:48.692Z,36.17
2022-12-07T11:16:23.206Z,19.00
2022-12-07T11:21:50.830Z,17.40
2022-12-07T11:27:30.629Z,16.80
2022-12-07T11:32:53.926Z,18.73
2022-12-07T11:38:19.871Z,19.35
2022-12-07T11:43:36.262Z,17.88
2022-12-07T11:48:51.322Z,18.05
2022-12-07T11:53:59.027Z,19.67
2022-12-07T11:59:18.969Z,21.58
2022-12-07T12:04:31.790Z,20.92
2022-12-07T12:09:51.995Z,21.35
2022-12-07T12:15:20.297Z,20.15
2022-12-07T12:20:31.585Z,20.70
2022-12-07T12:25:51.288Z,19.77
2022-12-07T12:31:13.533Z,20.60
2022-12-07T12:36:25.834Z,17.98
2022-12-07T12:41:40.685Z,18.90
2022-12-07T12:47:06.176Z,20.52
2022-12-07T12:52:47.207Z,20.92
2022-12-07T12:58:34.885Z,20.95
2022-12-07T13:03:37.996Z,22.20
2022-12-07T13:08:43.342Z,20.52
2022-12-07T13:13:45.657Z,21.17
2022-12-07T13:18:47.968Z,22.80
2022-12-07T13:23:51.732Z,23.67
2022-12-07T13:29:13.294Z,23.25
2022-12-07T13:34:32.615Z,22.42
2022-12-07T13:39:37.613Z,21.90
2022-12-07T13:44:43.662Z,22.35
2022-12-07T13:49:54.949Z,22.05
2022-12-07T13:55:02.747Z,23.30
2022-12-07T14:00:15.371Z,24.95
2022-12-07T14:05:26.854Z,22.60
2022-12-07T14:10:35.260Z,22.65
2022-12-07T14:15:37.704Z,24.23
2022-12-07T14:20:42.643Z,25.83
2022-12-07T14:25:53.600Z,26.00
2022-12-07T14:30:56.065Z,24.40
2022-12-07T14:35:59.555Z,26.15
2022-12-07T14:41:20.677Z,26.10
2022-12-07T14:46:23.018Z,36.25
2022-12-07T14:56:52.681Z,27.50
2022-12-07T15:01:55.858Z,28.10
2022-12-07T15:07:54.451Z,26.25
2022-12-07T15:13:17.184Z,29.25
2022-12-07T15:18:21.823Z,34.55
2022-12-07T15:23:24.263Z,36.22
2022-12-07T15:28:26.741Z,31.35
2022-12-07T15:33:29.101Z,26.65
2022-12-07T15:38:56.282Z,32.10
2022-12-07T15:44:13.007Z,30.40
2022-12-07T15:49:18.133Z,26.60
2022-12-07T15:54:29.436Z,29.00
2022-12-07T15:59:31.880Z,29.13
2022-12-07T16:04:34.201Z,30.80
2022-12-07T16:09:36.518Z,31.50
2022-12-07T16:14:39.568Z,31.00
2022-12-07T16:19:41.984Z,29.42
2022-12-07T16:24:44.450Z,30.25
2022-12-07T16:29:46.746Z,29.77
2022-12-07T16:34:49.742Z,32.63
2022-12-07T16:39:52.084Z,31.23
2022-12-07T16:44:54.545Z,33.97
2022-12-07T16:49:57.166Z,34.95
2022-12-07T16:54:59.460Z,34.20
2022-12-07T17:00:02.077Z,35.53
2022-12-07T17:05:04.821Z,34.45
2022-12-07T17:10:08.172Z,35.28
2022-12-07T17:15:22.355Z,36.33
2022-12-07T17:20:27.470Z,33.60
2022-12-07T17:25:29.813Z,35.47
2022-12-07T17:30:32.742Z,39.28
2022-12-07T17:35:35.075Z,41.13
2022-12-07T17:40:37.367Z,46.13
2022-12-07T17:45:39.879Z,40.30
2022-12-07T17:51:00.825Z,45.03
2022-12-07T17:56:27.554Z,43.85
2022-12-07T18:01:29.822Z,41.00
2022-12-07T18:06:36.417Z,40.65
2022-12-07T18:11:38.790Z,43.00
2022-12-07T18:16:41.335Z,45.00
2022-12-07T18:21:44.444Z,47.05
2022-12-07T18:26:48.736Z,47.55
2022-12-07T18:31:51.393Z,50.33
2022-12-07T18:36:53.978Z,47.55
2022-12-07T18:41:56.692Z,45.03
2022-12-07T18:46:59.145Z,43.00
2022-12-07T18:52:01.395Z,45.13
2022-12-07T18:57:03.734Z,48.22
2022-12-07T19:02:06.030Z,48.17
2022-12-07T19:07:08.334Z,47.33
2022-12-07T19:12:14.890Z,47.97
2022-12-07T19:17:17.291Z,49.15
2022-12-07T19:22:22.133Z,41.97
2022-12-07T19:27:25.458Z,32.40
2022-12-07T19:32:28.986Z,29.17
2022-12-07T19:37:31.563Z,29.98
2022-12-07T19:42:36.153Z,35.45
2022-12-07T19:47:38.404Z,38.83
2022-12-07T19:52:40.808Z,38.35
2022-12-07T19:57:43.116Z,39.17
2022-12-07T20:02:46.225Z,35.00
2022-12-07T20:07:48.730Z,32.78
2022-12-07T20:13:09.504Z,33.20
2022-12-07T20:18:11.760Z,35.42
2022-12-07T20:23:14.003Z,30.38
2022-12-07T20:28:16.461Z,23.33
2022-12-07T20:33:20.065Z,18.88
2022-12-07T20:38:22.422Z,17.48
2022-12-07T20:43:24.803Z,19.35
2022-12-07T20:48:27.865Z,18.08
2022-12-07T20:53:30.403Z,14.80
2022-12-07T20:58:32.658Z,14.38
2022-12-07T21:03:35.015Z,16.05
2022-12-07T21:08:37.330Z,14.63
2022-12-07T21:13:39.902Z,14.55
2022-12-07T21:18:42.491Z,14.25
2022-12-07T21:23:45.991Z,17.88
2022-12-07T21:28:49.656Z,25.08
2022-12-07T21:33:52.039Z,24.33
2022-12-07T21:38:54.824Z,25.17
2022-12-07T21:43:57.703Z,23.83
2022-12-07T21:49:02.872Z,22.33
2022-12-07T21:54:06.645Z,17.35
2022-12-07T21:59:14.409Z,16.88
2022-12-07T22:04:19.937Z,18.40
2022-12-07T22:09:25.128Z,19.30
2022-12-07T22:14:46.015Z,24.02
2022-12-07T22:19:48.342Z,24.58
2022-12-07T22:24:51.300Z,24.23
2022-12-07T22:29:53.804Z,27.77
2022-12-07T22:34:56.247Z,28.73
2022-12-07T22:39:59.650Z,31.55
2022-12-07T22:45:02.327Z,30.70
2022-12-07T22:50:07.467Z,26.20
2022-12-07T22:55:12.036Z,24.63
2022-12-07T23:00:14.891Z,25.27
2022-12-07T23:05:17.156Z,20.85
2022-12-07T23:10:19.636Z,20.33
2022-12-07T23:15:22.065Z,17.13
2022-12-07T23:20:24.461Z,14.60
2022-12-07T23:25:26.759Z,15.68
2022-12-07T23:30:29.167Z,18.35
2022-12-07T23:35:31.400Z,17.13
2022-12-07T23:40:33.639Z,16.13
2022-12-07T23:45:35.885Z,17.63
2022-12-07T23:50:38.195Z,18.42
2022-12-07T23:55:46.205Z,15.38
